West Lafayette, IN

1:57 PM EDT on May 28, 2017 (GMT -0400)
Lindberg Village | | Change Station
Active Advisory: Flood Warning

Elev 614 ft 40.45 °N, 86.97 °W | Updated 2 minutes ago

Mostly Cloudy
Mostly Cloudy
77.5 °F
Feels Like 79 °F
N
5.0
Wind Variable Wind from South
Gusts 7.3 mph

Today
High -- | Low -- °F
--% Chance of Precip.
Yesterday
High -- | Low -- °F
Precip. -- in
Pressure 29.72 in
Visibility 7.0 miles
Clouds Few 2500 ft
Scattered Clouds 4200 ft
Mostly Cloudy 7500 ft
Heat Index 79 °F
Dew Point 68 °F
Humidity 73%
Rainfall 0.00 in
Snow Depth Not available.
6:21 AM 9:09 PM
Waxing Crescent, 12% visible
METAR KLAF 281754Z 24006KT 7SM FEW025 SCT042 BKN075 22/21 A2973 RMK AO2 RAB15E52 SLP064 P0031 60031 T02170206 10233 20167 50001
Pressure 29.72 in
Visibility 7.0 miles
Clouds Few 2500 ft
Scattered Clouds 4200 ft
Mostly Cloudy 7500 ft
Heat Index 79 °F
Dew Point 68 °F
Humidity 73%
Rainfall 0.00 in
Snow Depth Not available.
6:21 AM 9:09 PM
Waxing Crescent, 12% visible
METAR KLAF 281754Z 24006KT 7SM FEW025 SCT042 BKN075 22/21 A2973 RMK AO2 RAB15E52 SLP064 P0031 60031 T02170206 10233 20167 50001

Get Your Daily Forecast Email!

Thanks for signing up!

Be on the lookout for a verification email in your inbox.

You'll start receiving severe weather alerts in your inbox..

×

10-Day Weather Forecast

Almanac

Astronomy

May. 28, 2017 Rise Set
Actual Time
Civil Twilight
Nautical Twilight
Astronomical Twilight
Moon
Length of Visible Light
Length of Day
Tomorrow will be .
, % of the Moon is Illuminated

Today's Extremes

State Highs State Lows

Community

WunderPhotos

Category 6

Welcome to Category 6. This is the collective home for Weather Underground's featured writeups by Dr. Jeff Masters (right), Bob Henson (left), Chris Burt, and other regular contributors.

Nearby

Air Quality

  Air Quality AQ Index Pollutant
Not available.

Snow Depth

Station Depth Elevation

Earthquake Activity

City Distance Mag. Time & Date
Minimum magnitude displayed is 2.5.

Coastal Water Temperatures

Place Temperature

Stations

Nearby Weather Stations

Station Location Temp. Windchill Dew Point Humidity Wind Precip. Elev Updated Type
                   

Watches & Warnings

Flood Warning
Issued: 11:06 AM EDT May. 28, 2017 – National Weather Service

The Flood Warning continues for
the Wabash River at Lafayette.
* Until late Monday night.
* At 10:45 am Sunday the stage was 12.2 feet.
* Flood stage is 11.0 feet.
* Minor flooding is occurring and minor flooding is forecast.
* Forecast... the river will continue rising to near 12.2 feet by this
afternoon. The river will fall below flood stage tomorrow
afternoon.
* At 12.0 feet... high water affects a few low river Cabins and County
roads.


Lat... Lon 4054 8670 4040 8688 4033 8709 4040 8709
      4048 8688 4056 8673